Sy Clevelander — 2CWE8 — position and weather

sailwx.info

Track history (hours):
 
Tides and Currents Weather Stations Pressure Air Temp Water Temp Dewpoint Dewpoint Depression Visibility Wind Speed Wind Dir Waves Ship Positions

Sy Clevelander

Last reported at 2017-Feb-15 10:13 UTC. Time now 2017-Feb-27 04:46 UTC.
Position N 36°07' W 005°26'.
Warning: this ship's position is 11 days out of date.

Length 25 m.

Type: Sailing vessel. MMSI: 235076308.

Date/timePositionNaut miles runAvg speedWind from/ knotsBaromVisibWave heightAir tempDewpointWater temp
2017-Feb-15 10:13N 36°07' W 005°26'0 0.0
2017-Feb-15 09:33N 36°07' W 005°26'0 0.0
2017-Feb-15 08:27N 36°07' W 005°26'0 0.0
2017-Feb-15 07:33N 36°07' W 005°26'0 0.0
2017-Feb-15 06:24N 36°07' W 005°26'0 0.0
2017-Feb-15 05:29N 36°07' W 005°26'0 0.0
2017-Feb-15 04:33N 36°07' W 005°26'0 0.0
2017-Feb-15 03:33N 36°07' W 005°26'0 0.0
2017-Feb-15 02:21N 36°07' W 005°26'0 0.0
2017-Feb-15 01:33N 36°07' W 005°26'0 0.0
2017-Feb-15 00:33N 36°07' W 005°26'0 0.0
2017-Feb-14 23:33N 36°07' W 005°26'0 0.0
2017-Feb-14 22:33N 36°07' W 005°26'0 0.0
2017-Feb-14 21:26N 36°07' W 005°26'0 0.0
2017-Feb-14 20:32N 36°07' W 005°26'0 0.0
2017-Feb-14 19:22N 36°07' W 005°26'0 0.5
2017-Feb-14 18:32N 36°07' W 005°26'8 8.6
2017-Feb-14 17:33N 36°09' W 005°15'  
2017-Feb-09 02:33N 36°20' W 004°55'9 8.8
2017-Feb-09 01:33N 36°15' W 005°05'10 9.5
2017-Feb-09 00:33N 36°10' W 005°15'6 6.2
2017-Feb-08 23:32N 36°09' W 005°22'1 0.8
2017-Feb-08 22:31N 36°09' W 005°22'0 0.0
2017-Feb-08 21:28N 36°09' W 005°22'0 0.0
2017-Feb-08 20:31N 36°09' W 005°22'0 0.0
2017-Feb-08 19:31N 36°09' W 005°22'0 0.0
2017-Feb-08 18:31N 36°09' W 005°22'0 0.0
2017-Feb-08 17:31N 36°09' W 005°22'0 0.0
2017-Feb-08 16:31N 36°09' W 005°22'0 0.0
2017-Feb-08 15:33N 36°09' W 005°22'0 0.0
2017-Feb-08 14:33N 36°09' W 005°22'0 0.0
2017-Feb-08 13:33N 36°09' W 005°22'0 0.0
2017-Feb-08 12:33N 36°09' W 005°22'0 0.0
2017-Feb-08 11:33N 36°09' W 005°22'0 0.0
2017-Feb-08 10:33N 36°09' W 005°22'0 0.0
2017-Feb-08 09:33N 36°09' W 005°22'0 0.0
2017-Feb-08 08:33N 36°09' W 005°22'0 0.0
2017-Feb-08 07:33N 36°09' W 005°22'0 0.0
2017-Feb-08 06:30N 36°09' W 005°22'0 0.0
2017-Feb-08 05:33N 36°09' W 005°22'0 0.0
2017-Feb-08 04:33N 36°09' W 005°22'0 0.0
2017-Feb-08 03:33N 36°09' W 005°22'0 0.0
2017-Feb-08 02:33N 36°09' W 005°22'0 0.0
2017-Feb-08 01:33N 36°09' W 005°22'0 0.0
2017-Feb-08 00:31N 36°09' W 005°22'0 0.0
2017-Feb-07 23:31N 36°09' W 005°22'0 0.0
2017-Feb-07 22:31N 36°09' W 005°22'0 0.0
2017-Feb-07 21:28N 36°09' W 005°22'0 0.0
2017-Feb-07 20:31N 36°09' W 005°22'0 0.0
2017-Feb-07 19:31N 36°09' W 005°22'0 0.0
2017-Feb-07 18:31N 36°09' W 005°22'0 0.0
2017-Feb-07 17:31N 36°09' W 005°22'0 0.0
2017-Feb-07 16:31N 36°09' W 005°22'0 0.0
2017-Feb-07 15:31N 36°09' W 005°22'0 0.0
2017-Feb-07 14:31N 36°09' W 005°22'0 0.0
2017-Feb-07 13:31N 36°09' W 005°22'0 0.0
2017-Feb-07 12:31N 36°09' W 005°22'0 0.0
2017-Feb-07 11:31N 36°09' W 005°22'0 0.0
2017-Feb-07 10:31N 36°09' W 005°22'0 0.0
2017-Feb-07 09:31N 36°09' W 005°22'0 0.0
2017-Feb-07 08:33N 36°09' W 005°21'0 0.0
2017-Feb-07 07:33N 36°09' W 005°22'0 0.0
2017-Feb-07 06:30N 36°09' W 005°22'0 0.0
2017-Feb-07 05:33N 36°09' W 005°22'0 0.0
2017-Feb-07 04:33N 36°09' W 005°22'0 0.0
2017-Feb-07 03:33N 36°09' W 005°22'0 0.0
2017-Feb-07 02:33N 36°09' W 005°22'0 0.0
2017-Feb-07 01:33N 36°09' W 005°22'0 0.0
2017-Feb-07 00:32N 36°09' W 005°22'0 0.0
2017-Feb-06 23:32N 36°09' W 005°22'0 0.0
2017-Feb-06 22:32N 36°09' W 005°22'0 0.0
2017-Feb-06 21:32N 36°09' W 005°22'0 0.0
2017-Feb-06 20:32N 36°09' W 005°22'0 0.0
2017-Feb-06 19:29N 36°09' W 005°22'0 0.0
2017-Feb-06 18:32N 36°09' W 005°22'0 0.0
2017-Feb-06 17:32N 36°09' W 005°22'0 0.0
2017-Feb-06 16:32N 36°09' W 005°22'0 0.0
2017-Feb-06 15:32N 36°09' W 005°22'0 0.0
2017-Feb-06 14:32N 36°09' W 005°22'0 0.0
2017-Feb-06 13:32N 36°09' W 005°22'0 0.0
2017-Feb-06 12:33N 36°09' W 005°22'2 2.0
2017-Feb-06 11:31N 36°09' W 005°19'8 8.2
2017-Feb-06 10:29N 36°17' W 005°16'  
Track history (hours):
 
Tides and Currents Weather Stations Pressure Air Temp Water Temp Dewpoint Dewpoint Depression Visibility Wind Speed Wind Dir Waves Ship Positions

Sy Clevelander

Last reported at 2017-Feb-15 10:13 UTC. Time now 2017-Feb-27 04:46 UTC.
Position N 36°07' W 005°26'.
Warning: this ship's position is 11 days out of date.

Length 25 m.

Type: Sailing vessel. MMSI: 235076308.

Date/timePositionNaut miles runAvg speedWind from/ knotsBaromVisibWave heightAir tempDewpointWater temp
2017-Feb-15 10:13N 36°07' W 005°26'0 0.0
2017-Feb-15 09:33N 36°07' W 005°26'0 0.0
2017-Feb-15 08:27N 36°07' W 005°26'0 0.0
2017-Feb-15 07:33N 36°07' W 005°26'0 0.0
2017-Feb-15 06:24N 36°07' W 005°26'0 0.0
2017-Feb-15 05:29N 36°07' W 005°26'0 0.0
2017-Feb-15 04:33N 36°07' W 005°26'0 0.0
2017-Feb-15 03:33N 36°07' W 005°26'0 0.0
2017-Feb-15 02:21N 36°07' W 005°26'0 0.0
2017-Feb-15 01:33N 36°07' W 005°26'0 0.0
2017-Feb-15 00:33N 36°07' W 005°26'0 0.0
2017-Feb-14 23:33N 36°07' W 005°26'0 0.0
2017-Feb-14 22:33N 36°07' W 005°26'0 0.0
2017-Feb-14 21:26N 36°07' W 005°26'0 0.0
2017-Feb-14 20:32N 36°07' W 005°26'0 0.0
2017-Feb-14 19:22N 36°07' W 005°26'0 0.5
2017-Feb-14 18:32N 36°07' W 005°26'8 8.6
2017-Feb-14 17:33N 36°09' W 005°15'  
2017-Feb-09 02:33N 36°20' W 004°55'9 8.8
2017-Feb-09 01:33N 36°15' W 005°05'10 9.5
2017-Feb-09 00:33N 36°10' W 005°15'6 6.2
2017-Feb-08 23:32N 36°09' W 005°22'1 0.8
2017-Feb-08 22:31N 36°09' W 005°22'0 0.0
2017-Feb-08 21:28N 36°09' W 005°22'0 0.0
2017-Feb-08 20:31N 36°09' W 005°22'0 0.0
2017-Feb-08 19:31N 36°09' W 005°22'0 0.0
2017-Feb-08 18:31N 36°09' W 005°22'0 0.0
2017-Feb-08 17:31N 36°09' W 005°22'0 0.0
2017-Feb-08 16:31N 36°09' W 005°22'0 0.0
2017-Feb-08 15:33N 36°09' W 005°22'0 0.0
2017-Feb-08 14:33N 36°09' W 005°22'0 0.0
2017-Feb-08 13:33N 36°09' W 005°22'0 0.0
2017-Feb-08 12:33N 36°09' W 005°22'0 0.0
2017-Feb-08 11:33N 36°09' W 005°22'0 0.0
2017-Feb-08 10:33N 36°09' W 005°22'0 0.0
2017-Feb-08 09:33N 36°09' W 005°22'0 0.0
2017-Feb-08 08:33N 36°09' W 005°22'0 0.0
2017-Feb-08 07:33N 36°09' W 005°22'0 0.0
2017-Feb-08 06:30N 36°09' W 005°22'0 0.0
2017-Feb-08 05:33N 36°09' W 005°22'0 0.0
2017-Feb-08 04:33N 36°09' W 005°22'0 0.0
2017-Feb-08 03:33N 36°09' W 005°22'0 0.0
2017-Feb-08 02:33N 36°09' W 005°22'0 0.0
2017-Feb-08 01:33N 36°09' W 005°22'0 0.0
2017-Feb-08 00:31N 36°09' W 005°22'0 0.0
2017-Feb-07 23:31N 36°09' W 005°22'0 0.0
2017-Feb-07 22:31N 36°09' W 005°22'0 0.0
2017-Feb-07 21:28N 36°09' W 005°22'0 0.0
2017-Feb-07 20:31N 36°09' W 005°22'0 0.0
2017-Feb-07 19:31N 36°09' W 005°22'0 0.0
2017-Feb-07 18:31N 36°09' W 005°22'0 0.0
2017-Feb-07 17:31N 36°09' W 005°22'0 0.0
2017-Feb-07 16:31N 36°09' W 005°22'0 0.0
2017-Feb-07 15:31N 36°09' W 005°22'0 0.0
2017-Feb-07 14:31N 36°09' W 005°22'0 0.0
2017-Feb-07 13:31N 36°09' W 005°22'0 0.0
2017-Feb-07 12:31N 36°09' W 005°22'0 0.0
2017-Feb-07 11:31N 36°09' W 005°22'0 0.0
2017-Feb-07 10:31N 36°09' W 005°22'0 0.0
2017-Feb-07 09:31N 36°09' W 005°22'0 0.0
2017-Feb-07 08:33N 36°09' W 005°21'0 0.0
2017-Feb-07 07:33N 36°09' W 005°22'0 0.0
2017-Feb-07 06:30N 36°09' W 005°22'0 0.0
2017-Feb-07 05:33N 36°09' W 005°22'0 0.0
2017-Feb-07 04:33N 36°09' W 005°22'0 0.0
2017-Feb-07 03:33N 36°09' W 005°22'0 0.0
2017-Feb-07 02:33N 36°09' W 005°22'0 0.0
2017-Feb-07 01:33N 36°09' W 005°22'0 0.0
2017-Feb-07 00:32N 36°09' W 005°22'0 0.0
2017-Feb-06 23:32N 36°09' W 005°22'0 0.0
2017-Feb-06 22:32N 36°09' W 005°22'0 0.0
2017-Feb-06 21:32N 36°09' W 005°22'0 0.0
2017-Feb-06 20:32N 36°09' W 005°22'0 0.0
2017-Feb-06 19:29N 36°09' W 005°22'0 0.0
2017-Feb-06 18:32N 36°09' W 005°22'0 0.0
2017-Feb-06 17:32N 36°09' W 005°22'0 0.0
2017-Feb-06 16:32N 36°09' W 005°22'0 0.0
2017-Feb-06 15:32N 36°09' W 005°22'0 0.0
2017-Feb-06 14:32N 36°09' W 005°22'0 0.0
2017-Feb-06 13:32N 36°09' W 005°22'0 0.0
2017-Feb-06 12:33N 36°09' W 005°22'2 2.0
2017-Feb-06 11:31N 36°09' W 005°19'8 8.2
2017-Feb-06 10:29N 36°17' W 005°16'  

Dump ship's entire track history